sensor_id;sensor_type;location;lat;lon;timestamp;P1;durP1;ratioP1;P2;durP2;ratioP2
20725;SDS011;10524;48.132;8.518;2022-09-09T00:00:19;6.30;;;1.90;;
20725;SDS011;10524;48.132;8.518;2022-09-09T00:03:00;6.47;;;2.47;;
20725;SDS011;10524;48.132;8.518;2022-09-09T00:08:58;4.32;;;2.20;;
20725;SDS011;10524;48.132;8.518;2022-09-09T00:11:29;6.97;;;2.10;;
20725;SDS011;10524;48.132;8.518;2022-09-09T00:17:04;3.65;;;2.30;;
20725;SDS011;10524;48.132;8.518;2022-09-09T00:19:44;5.43;;;2.13;;
20725;SDS011;10524;48.132;8.518;2022-09-09T00:22:24;5.22;;;1.90;;
20725;SDS011;10524;48.132;8.518;2022-09-09T00:24:53;6.10;;;2.00;;
20725;SDS011;10524;48.132;8.518;2022-09-09T00:30:16;6.63;;;2.15;;
20725;SDS011;10524;48.132;8.518;2022-09-09T00:32:46;5.88;;;2.25;;
20725;SDS011;10524;48.132;8.518;2022-09-09T00:35:23;4.00;;;2.30;;
20725;SDS011;10524;48.132;8.518;2022-09-09T00:37:56;5.10;;;2.42;;
20725;SDS011;10524;48.132;8.518;2022-09-09T00:40:28;5.33;;;2.03;;
20725;SDS011;10524;48.132;8.518;2022-09-09T00:46:11;3.70;;;2.20;;
20725;SDS011;10524;48.132;8.518;2022-09-09T00:54:44;3.60;;;2.20;;
20725;SDS011;10524;48.132;8.518;2022-09-09T01:00:16;6.88;;;2.40;;
20725;SDS011;10524;48.132;8.518;2022-09-09T01:11:21;3.97;;;2.22;;
20725;SDS011;10524;48.132;8.518;2022-09-09T01:13:53;6.07;;;2.78;;
20725;SDS011;10524;48.132;8.518;2022-09-09T01:16:35;5.53;;;2.30;;
20725;SDS011;10524;48.132;8.518;2022-09-09T01:19:01;4.78;;;2.45;;
20725;SDS011;10524;48.132;8.518;2022-09-09T01:21:34;7.20;;;2.63;;
20725;SDS011;10524;48.132;8.518;2022-09-09T01:26:52;3.50;;;2.13;;
20725;SDS011;10524;48.132;8.518;2022-09-09T01:29:22;2.42;;;1.80;;
20725;SDS011;10524;48.132;8.518;2022-09-09T01:31:55;3.15;;;1.95;;
20725;SDS011;10524;48.132;8.518;2022-09-09T01:34:24;4.20;;;2.03;;
20725;SDS011;10524;48.132;8.518;2022-09-09T01:36:59;3.35;;;1.92;;
20725;SDS011;10524;48.132;8.518;2022-09-09T01:39:29;5.65;;;2.10;;
20725;SDS011;10524;48.132;8.518;2022-09-09T01:41:56;5.50;;;2.08;;
20725;SDS011;10524;48.132;8.518;2022-09-09T01:44:22;2.95;;;2.03;;
20725;SDS011;10524;48.132;8.518;2022-09-09T01:46:50;2.55;;;1.92;;
20725;SDS011;10524;48.132;8.518;2022-09-09T01:49:16;2.42;;;1.67;;
20725;SDS011;10524;48.132;8.518;2022-09-09T01:51:42;3.55;;;1.67;;
20725;SDS011;10524;48.132;8.518;2022-09-09T01:54:09;2.78;;;1.80;;
20725;SDS011;10524;48.132;8.518;2022-09-09T01:56:39;5.53;;;1.92;;
20725;SDS011;10524;48.132;8.518;2022-09-09T01:59:30;5.70;;;1.80;;
20725;SDS011;10524;48.132;8.518;2022-09-09T02:04:43;3.30;;;1.93;;
20725;SDS011;10524;48.132;8.518;2022-09-09T02:10:30;4.68;;;1.80;;
20725;SDS011;10524;48.132;8.518;2022-09-09T02:13:04;3.50;;;1.70;;
20725;SDS011;10524;48.132;8.518;2022-09-09T02:18:07;2.90;;;1.60;;
20725;SDS011;10524;48.132;8.518;2022-09-09T02:20:36;3.33;;;1.80;;
20725;SDS011;10524;48.132;8.518;2022-09-09T02:23:03;15.20;;;1.95;;
20725;SDS011;10524;48.132;8.518;2022-09-09T02:25:30;1.85;;;1.50;;
20725;SDS011;10524;48.132;8.518;2022-09-09T02:27:58;2.33;;;1.70;;
20725;SDS011;10524;48.132;8.518;2022-09-09T02:30:24;6.05;;;1.70;;
20725;SDS011;10524;48.132;8.518;2022-09-09T02:32:51;5.50;;;1.80;;
20725;SDS011;10524;48.132;8.518;2022-09-09T02:35:22;4.07;;;1.83;;
20725;SDS011;10524;48.132;8.518;2022-09-09T02:37:50;4.53;;;2.13;;
20725;SDS011;10524;48.132;8.518;2022-09-09T02:40:18;4.97;;;2.05;;
20725;SDS011;10524;48.132;8.518;2022-09-09T02:42:46;5.05;;;2.05;;
20725;SDS011;10524;48.132;8.518;2022-09-09T02:45:15;5.68;;;2.00;;
20725;SDS011;10524;48.132;8.518;2022-09-09T02:50:13;3.42;;;2.03;;
20725;SDS011;10524;48.132;8.518;2022-09-09T02:52:52;8.68;;;2.20;;
20725;SDS011;10524;48.132;8.518;2022-09-09T02:57:53;3.85;;;2.50;;
20725;SDS011;10524;48.132;8.518;2022-09-09T03:00:25;5.63;;;2.53;;
20725;SDS011;10524;48.132;8.518;2022-09-09T03:02:52;7.32;;;2.80;;
20725;SDS011;10524;48.132;8.518;2022-09-09T03:05:21;6.85;;;2.85;;
20725;SDS011;10524;48.132;8.518;2022-09-09T03:07:47;9.32;;;3.00;;
20725;SDS011;10524;48.132;8.518;2022-09-09T03:10:14;8.63;;;3.13;;
20725;SDS011;10524;48.132;8.518;2022-09-09T03:12:40;4.15;;;2.20;;
20725;SDS011;10524;48.132;8.518;2022-09-09T03:15:06;7.00;;;2.92;;
20725;SDS011;10524;48.132;8.518;2022-09-09T03:17:32;8.90;;;2.88;;
20725;SDS011;10524;48.132;8.518;2022-09-09T03:19:58;5.32;;;3.10;;
20725;SDS011;10524;48.132;8.518;2022-09-09T03:22:24;6.95;;;3.17;;
20725;SDS011;10524;48.132;8.518;2022-09-09T03:24:50;5.60;;;3.10;;
20725;SDS011;10524;48.132;8.518;2022-09-09T03:27:16;7.78;;;3.35;;
20725;SDS011;10524;48.132;8.518;2022-09-09T03:29:42;8.45;;;3.22;;
20725;SDS011;10524;48.132;8.518;2022-09-09T03:32:08;6.35;;;3.30;;
20725;SDS011;10524;48.132;8.518;2022-09-09T03:34:35;6.57;;;3.50;;
20725;SDS011;10524;48.132;8.518;2022-09-09T03:37:04;5.03;;;3.42;;
20725;SDS011;10524;48.132;8.518;2022-09-09T03:39:30;5.45;;;3.35;;
20725;SDS011;10524;48.132;8.518;2022-09-09T03:41:56;9.80;;;3.92;;
20725;SDS011;10524;48.132;8.518;2022-09-09T03:44:22;7.00;;;3.60;;
20725;SDS011;10524;48.132;8.518;2022-09-09T03:46:47;9.02;;;4.18;;
20725;SDS011;10524;48.132;8.518;2022-09-09T03:49:13;7.30;;;4.25;;
20725;SDS011;10524;48.132;8.518;2022-09-09T03:51:39;7.57;;;4.60;;
20725;SDS011;10524;48.132;8.518;2022-09-09T03:54:05;6.50;;;4.38;;
20725;SDS011;10524;48.132;8.518;2022-09-09T03:56:33;7.50;;;4.28;;
20725;SDS011;10524;48.132;8.518;2022-09-09T03:58:59;8.30;;;3.85;;
20725;SDS011;10524;48.132;8.518;2022-09-09T04:01:24;7.47;;;4.00;;
20725;SDS011;10524;48.132;8.518;2022-09-09T04:03:50;7.53;;;3.92;;
20725;SDS011;10524;48.132;8.518;2022-09-09T04:06:17;9.32;;;4.75;;
20725;SDS011;10524;48.132;8.518;2022-09-09T04:08:45;6.25;;;4.35;;
20725;SDS011;10524;48.132;8.518;2022-09-09T04:11:13;6.55;;;4.57;;
20725;SDS011;10524;48.132;8.518;2022-09-09T04:13:40;8.95;;;5.30;;
20725;SDS011;10524;48.132;8.518;2022-09-09T04:16:07;9.05;;;4.90;;
20725;SDS011;10524;48.132;8.518;2022-09-09T04:18:35;7.68;;;5.13;;
20725;SDS011;10524;48.132;8.518;2022-09-09T04:21:01;6.90;;;4.82;;
20725;SDS011;10524;48.132;8.518;2022-09-09T04:23:28;11.32;;;5.15;;
20725;SDS011;10524;48.132;8.518;2022-09-09T04:25:55;10.50;;;5.60;;
20725;SDS011;10524;48.132;8.518;2022-09-09T04:28:23;6.65;;;4.93;;
20725;SDS011;10524;48.132;8.518;2022-09-09T04:30:50;7.93;;;4.55;;
20725;SDS011;10524;48.132;8.518;2022-09-09T04:33:17;5.35;;;4.30;;
20725;SDS011;10524;48.132;8.518;2022-09-09T04:35:47;7.10;;;4.00;;
20725;SDS011;10524;48.132;8.518;2022-09-09T04:38:14;6.07;;;4.68;;
20725;SDS011;10524;48.132;8.518;2022-09-09T04:40:42;9.23;;;5.50;;
20725;SDS011;10524;48.132;8.518;2022-09-09T04:43:09;7.80;;;4.97;;
20725;SDS011;10524;48.132;8.518;2022-09-09T04:45:35;7.95;;;4.63;;
20725;SDS011;10524;48.132;8.518;2022-09-09T04:48:00;7.45;;;4.78;;
20725;SDS011;10524;48.132;8.518;2022-09-09T04:50:27;7.95;;;4.38;;
20725;SDS011;10524;48.132;8.518;2022-09-09T04:52:53;9.73;;;4.78;;
20725;SDS011;10524;48.132;8.518;2022-09-09T04:55:19;6.95;;;4.15;;
20725;SDS011;10524;48.132;8.518;2022-09-09T04:57:45;8.65;;;4.90;;
20725;SDS011;10524;48.132;8.518;2022-09-09T05:00:11;8.50;;;4.60;;
20725;SDS011;10524;48.132;8.518;2022-09-09T05:02:37;9.05;;;4.90;;
20725;SDS011;10524;48.132;8.518;2022-09-09T05:05:03;7.45;;;5.07;;
20725;SDS011;10524;48.132;8.518;2022-09-09T05:07:30;7.13;;;4.80;;
20725;SDS011;10524;48.132;8.518;2022-09-09T05:09:56;8.75;;;5.07;;
20725;SDS011;10524;48.132;8.518;2022-09-09T05:12:22;8.15;;;5.07;;
20725;SDS011;10524;48.132;8.518;2022-09-09T05:14:50;7.97;;;5.32;;
20725;SDS011;10524;48.132;8.518;2022-09-09T05:17:16;9.10;;;5.40;;
20725;SDS011;10524;48.132;8.518;2022-09-09T05:19:42;7.63;;;5.30;;
20725;SDS011;10524;48.132;8.518;2022-09-09T05:22:09;9.75;;;4.80;;
20725;SDS011;10524;48.132;8.518;2022-09-09T05:24:36;7.57;;;4.90;;
20725;SDS011;10524;48.132;8.518;2022-09-09T05:27:01;8.27;;;5.40;;
20725;SDS011;10524;48.132;8.518;2022-09-09T05:29:27;7.60;;;5.57;;
20725;SDS011;10524;48.132;8.518;2022-09-09T05:31:53;7.13;;;5.22;;
20725;SDS011;10524;48.132;8.518;2022-09-09T05:34:19;6.20;;;5.25;;
20725;SDS011;10524;48.132;8.518;2022-09-09T05:36:45;8.63;;;5.25;;
20725;SDS011;10524;48.132;8.518;2022-09-09T05:39:11;7.60;;;4.90;;
20725;SDS011;10524;48.132;8.518;2022-09-09T05:41:37;6.70;;;4.50;;
20725;SDS011;10524;48.132;8.518;2022-09-09T05:44:03;6.57;;;3.60;;
20725;SDS011;10524;48.132;8.518;2022-09-09T05:46:29;7.00;;;3.70;;
20725;SDS011;10524;48.132;8.518;2022-09-09T05:48:55;5.93;;;3.60;;
20725;SDS011;10524;48.132;8.518;2022-09-09T05:51:22;5.93;;;3.95;;
20725;SDS011;10524;48.132;8.518;2022-09-09T05:53:49;7.55;;;3.65;;
20725;SDS011;10524;48.132;8.518;2022-09-09T05:56:23;5.72;;;3.65;;
20725;SDS011;10524;48.132;8.518;2022-09-09T05:58:50;5.63;;;3.80;;
20725;SDS011;10524;48.132;8.518;2022-09-09T06:01:20;4.45;;;3.47;;
20725;SDS011;10524;48.132;8.518;2022-09-09T06:06:21;4.00;;;3.35;;
20725;SDS011;10524;48.132;8.518;2022-09-09T06:08:51;6.28;;;4.10;;
20725;SDS011;10524;48.132;8.518;2022-09-09T06:11:23;5.00;;;3.83;;
20725;SDS011;10524;48.132;8.518;2022-09-09T06:13:50;4.70;;;3.38;;
20725;SDS011;10524;48.132;8.518;2022-09-09T06:16:19;5.65;;;3.85;;
20725;SDS011;10524;48.132;8.518;2022-09-09T06:18:48;6.10;;;3.60;;
20725;SDS011;10524;48.132;8.518;2022-09-09T06:21:16;6.30;;;3.38;;
20725;SDS011;10524;48.132;8.518;2022-09-09T06:23:44;5.75;;;3.42;;
20725;SDS011;10524;48.132;8.518;2022-09-09T06:26:11;5.93;;;3.60;;
20725;SDS011;10524;48.132;8.518;2022-09-09T06:28:37;4.28;;;3.10;;
20725;SDS011;10524;48.132;8.518;2022-09-09T06:31:05;8.02;;;3.35;;
20725;SDS011;10524;48.132;8.518;2022-09-09T06:33:36;4.72;;;3.40;;
20725;SDS011;10524;48.132;8.518;2022-09-09T06:36:15;4.07;;;2.67;;
20725;SDS011;10524;48.132;8.518;2022-09-09T06:38:43;4.93;;;2.78;;
20725;SDS011;10524;48.132;8.518;2022-09-09T06:41:10;3.92;;;3.10;;
20725;SDS011;10524;48.132;8.518;2022-09-09T06:43:37;4.65;;;3.00;;
20725;SDS011;10524;48.132;8.518;2022-09-09T06:46:13;3.90;;;2.40;;
20725;SDS011;10524;48.132;8.518;2022-09-09T06:48:41;4.53;;;2.22;;
20725;SDS011;10524;48.132;8.518;2022-09-09T06:53:41;6.45;;;2.80;;
20725;SDS011;10524;48.132;8.518;2022-09-09T06:59:01;6.18;;;2.70;;
20725;SDS011;10524;48.132;8.518;2022-09-09T07:01:33;6.13;;;3.17;;
20725;SDS011;10524;48.132;8.518;2022-09-09T07:04:04;5.22;;;2.55;;
20725;SDS011;10524;48.132;8.518;2022-09-09T07:06:36;6.38;;;2.92;;
20725;SDS011;10524;48.132;8.518;2022-09-09T07:09:04;6.82;;;2.95;;
20725;SDS011;10524;48.132;8.518;2022-09-09T07:11:38;6.43;;;3.20;;
20725;SDS011;10524;48.132;8.518;2022-09-09T07:14:09;5.90;;;3.00;;
20725;SDS011;10524;48.132;8.518;2022-09-09T07:16:37;4.22;;;2.67;;
20725;SDS011;10524;48.132;8.518;2022-09-09T07:19:03;6.10;;;3.10;;
20725;SDS011;10524;48.132;8.518;2022-09-09T07:21:30;5.93;;;2.97;;
20725;SDS011;10524;48.132;8.518;2022-09-09T07:23:56;6.70;;;3.05;;
20725;SDS011;10524;48.132;8.518;2022-09-09T07:26:23;4.32;;;2.65;;
20725;SDS011;10524;48.132;8.518;2022-09-09T07:28:50;3.17;;;2.75;;
20725;SDS011;10524;48.132;8.518;2022-09-09T07:33:43;8.98;;;3.50;;
20725;SDS011;10524;48.132;8.518;2022-09-09T07:38:47;5.88;;;3.25;;
20725;SDS011;10524;48.132;8.518;2022-09-09T07:41:24;8.32;;;3.30;;
20725;SDS011;10524;48.132;8.518;2022-09-09T07:43:52;5.60;;;3.35;;
20725;SDS011;10524;48.132;8.518;2022-09-09T07:46:22;5.38;;;3.17;;
20725;SDS011;10524;48.132;8.518;2022-09-09T07:48:52;7.32;;;3.40;;
20725;SDS011;10524;48.132;8.518;2022-09-09T07:51:24;6.85;;;3.15;;
20725;SDS011;10524;48.132;8.518;2022-09-09T07:53:54;6.75;;;3.50;;
20725;SDS011;10524;48.132;8.518;2022-09-09T07:56:23;5.32;;;3.55;;
20725;SDS011;10524;48.132;8.518;2022-09-09T07:58:51;4.47;;;3.50;;
20725;SDS011;10524;48.132;8.518;2022-09-09T08:01:19;6.13;;;3.20;;
20725;SDS011;10524;48.132;8.518;2022-09-09T08:03:51;4.72;;;2.15;;
20725;SDS011;10524;48.132;8.518;2022-09-09T08:06:29;5.13;;;1.80;;
20725;SDS011;10524;48.132;8.518;2022-09-09T08:08:58;2.25;;;1.40;;
20725;SDS011;10524;48.132;8.518;2022-09-09T08:11:25;3.15;;;1.67;;
20725;SDS011;10524;48.132;8.518;2022-09-09T08:13:52;2.22;;;1.40;;
20725;SDS011;10524;48.132;8.518;2022-09-09T08:16:19;2.65;;;1.40;;
20725;SDS011;10524;48.132;8.518;2022-09-09T08:18:48;2.85;;;1.55;;
20725;SDS011;10524;48.132;8.518;2022-09-09T08:21:16;2.50;;;1.02;;
20725;SDS011;10524;48.132;8.518;2022-09-09T08:23:43;1.65;;;0.93;;
20725;SDS011;10524;48.132;8.518;2022-09-09T08:28:47;3.65;;;1.20;;
20725;SDS011;10524;48.132;8.518;2022-09-09T08:31:17;3.08;;;1.10;;
20725;SDS011;10524;48.132;8.518;2022-09-09T08:33:45;2.58;;;0.88;;
20725;SDS011;10524;48.132;8.518;2022-09-09T08:36:14;4.20;;;1.13;;
20725;SDS011;10524;48.132;8.518;2022-09-09T08:38:42;2.75;;;1.10;;
20725;SDS011;10524;48.132;8.518;2022-09-09T08:44:09;2.03;;;1.02;;
20725;SDS011;10524;48.132;8.518;2022-09-09T08:52:23;3.67;;;1.20;;
20725;SDS011;10524;48.132;8.518;2022-09-09T08:54:55;5.05;;;1.50;;
20725;SDS011;10524;48.132;8.518;2022-09-09T08:57:44;2.88;;;1.08;;
20725;SDS011;10524;48.132;8.518;2022-09-09T09:00:11;5.05;;;1.42;;
20725;SDS011;10524;48.132;8.518;2022-09-09T09:03:12;4.07;;;1.58;;
20725;SDS011;10524;48.132;8.518;2022-09-09T09:08:47;4.40;;;1.30;;
20725;SDS011;10524;48.132;8.518;2022-09-09T09:11:43;6.30;;;1.83;;
20725;SDS011;10524;48.132;8.518;2022-09-09T09:14:22;6.10;;;1.30;;
20725;SDS011;10524;48.132;8.518;2022-09-09T09:16:53;5.70;;;1.50;;
20725;SDS011;10524;48.132;8.518;2022-09-09T09:19:24;2.80;;;1.20;;
20725;SDS011;10524;48.132;8.518;2022-09-09T09:24:39;6.03;;;1.23;;
20725;SDS011;10524;48.132;8.518;2022-09-09T09:27:31;4.60;;;1.70;;
20725;SDS011;10524;48.132;8.518;2022-09-09T09:30:14;4.22;;;1.27;;
20725;SDS011;10524;48.132;8.518;2022-09-09T09:32:50;3.17;;;1.20;;
20725;SDS011;10524;48.132;8.518;2022-09-09T09:35:17;2.65;;;1.02;;
20725;SDS011;10524;48.132;8.518;2022-09-09T09:37:42;3.13;;;0.90;;
20725;SDS011;10524;48.132;8.518;2022-09-09T09:40:12;3.10;;;0.90;;
20725;SDS011;10524;48.132;8.518;2022-09-09T09:42:51;5.30;;;1.00;;
20725;SDS011;10524;48.132;8.518;2022-09-09T09:47:57;4.00;;;1.00;;
20725;SDS011;10524;48.132;8.518;2022-09-09T09:50:24;2.83;;;0.90;;
20725;SDS011;10524;48.132;8.518;2022-09-09T09:52:53;2.08;;;1.00;;
20725;SDS011;10524;48.132;8.518;2022-09-09T09:55:25;3.33;;;1.00;;
20725;SDS011;10524;48.132;8.518;2022-09-09T09:57:51;1.30;;;0.63;;
20725;SDS011;10524;48.132;8.518;2022-09-09T10:00:19;2.75;;;0.90;;
20725;SDS011;10524;48.132;8.518;2022-09-09T10:02:47;1.60;;;0.60;;
20725;SDS011;10524;48.132;8.518;2022-09-09T10:07:45;2.47;;;0.70;;
20725;SDS011;10524;48.132;8.518;2022-09-09T10:10:13;1.83;;;0.80;;
20725;SDS011;10524;48.132;8.518;2022-09-09T10:13:05;2.22;;;0.65;;
20725;SDS011;10524;48.132;8.518;2022-09-09T10:15:52;2.65;;;0.98;;
20725;SDS011;10524;48.132;8.518;2022-09-09T10:18:49;2.65;;;0.80;;
20725;SDS011;10524;48.132;8.518;2022-09-09T10:21:28;1.92;;;0.60;;
20725;SDS011;10524;48.132;8.518;2022-09-09T10:31:50;2.67;;;0.83;;
20725;SDS011;10524;48.132;8.518;2022-09-09T10:37:37;2.60;;;0.80;;
20725;SDS011;10524;48.132;8.518;2022-09-09T10:42:39;2.08;;;0.60;;
20725;SDS011;10524;48.132;8.518;2022-09-09T10:45:18;2.10;;;0.68;;
20725;SDS011;10524;48.132;8.518;2022-09-09T10:51:40;1.42;;;0.50;;
20725;SDS011;10524;48.132;8.518;2022-09-09T10:59:50;2.13;;;0.60;;
20725;SDS011;10524;48.132;8.518;2022-09-09T11:07:41;1.40;;;0.57;;
20725;SDS011;10524;48.132;8.518;2022-09-09T11:12:44;1.43;;;0.60;;
20725;SDS011;10524;48.132;8.518;2022-09-09T11:15:18;2.50;;;1.02;;
20725;SDS011;10524;48.132;8.518;2022-09-09T11:17:58;2.15;;;0.60;;
20725;SDS011;10524;48.132;8.518;2022-09-09T11:20:27;2.75;;;0.65;;
20725;SDS011;10524;48.132;8.518;2022-09-09T11:22:55;2.10;;;0.70;;
20725;SDS011;10524;48.132;8.518;2022-09-09T11:25:42;1.35;;;0.60;;
20725;SDS011;10524;48.132;8.518;2022-09-09T11:34:06;3.65;;;0.60;;
20725;SDS011;10524;48.132;8.518;2022-09-09T11:42:05;2.65;;;0.60;;
20725;SDS011;10524;48.132;8.518;2022-09-09T11:44:37;2.28;;;0.65;;
20725;SDS011;10524;48.132;8.518;2022-09-09T11:47:03;1.63;;;0.60;;
20725;SDS011;10524;48.132;8.518;2022-09-09T11:49:41;1.33;;;0.50;;
20725;SDS011;10524;48.132;8.518;2022-09-09T11:52:12;1.13;;;0.60;;
20725;SDS011;10524;48.132;8.518;2022-09-09T11:54:49;3.17;;;0.82;;
20725;SDS011;10524;48.132;8.518;2022-09-09T11:57:25;5.25;;;1.75;;
20725;SDS011;10524;48.132;8.518;2022-09-09T11:59:58;2.25;;;0.65;;
20725;SDS011;10524;48.132;8.518;2022-09-09T12:02:25;3.15;;;0.80;;
20725;SDS011;10524;48.132;8.518;2022-09-09T12:04:58;3.00;;;0.80;;
20725;SDS011;10524;48.132;8.518;2022-09-09T12:10:03;3.10;;;0.80;;
20725;SDS011;10524;48.132;8.518;2022-09-09T12:12:44;2.88;;;0.70;;
20725;SDS011;10524;48.132;8.518;2022-09-09T12:17:43;1.80;;;0.60;;
20725;SDS011;10524;48.132;8.518;2022-09-09T12:20:17;2.28;;;0.90;;
20725;SDS011;10524;48.132;8.518;2022-09-09T12:25:56;2.92;;;0.80;;
20725;SDS011;10524;48.132;8.518;2022-09-09T12:31:10;2.10;;;0.50;;
20725;SDS011;10524;48.132;8.518;2022-09-09T12:33:43;1.85;;;0.50;;
20725;SDS011;10524;48.132;8.518;2022-09-09T12:36:21;1.67;;;0.60;;
20725;SDS011;10524;48.132;8.518;2022-09-09T12:38:50;1.67;;;0.50;;
20725;SDS011;10524;48.132;8.518;2022-09-09T12:41:24;2.65;;;0.80;;
20725;SDS011;10524;48.132;8.518;2022-09-09T12:43:51;2.88;;;0.55;;
20725;SDS011;10524;48.132;8.518;2022-09-09T12:46:38;2.60;;;0.60;;
20725;SDS011;10524;48.132;8.518;2022-09-09T12:52:17;2.88;;;0.70;;
20725;SDS011;10524;48.132;8.518;2022-09-09T12:54:55;2.65;;;0.85;;
20725;SDS011;10524;48.132;8.518;2022-09-09T12:57:22;2.17;;;0.68;;
20725;SDS011;10524;48.132;8.518;2022-09-09T12:59:52;2.28;;;0.50;;
20725;SDS011;10524;48.132;8.518;2022-09-09T13:02:34;3.20;;;0.73;;
20725;SDS011;10524;48.132;8.518;2022-09-09T13:08:29;2.45;;;0.77;;
20725;SDS011;10524;48.132;8.518;2022-09-09T13:10:57;3.15;;;0.75;;
20725;SDS011;10524;48.132;8.518;2022-09-09T13:16:56;3.28;;;0.63;;
20725;SDS011;10524;48.132;8.518;2022-09-09T13:19:23;5.43;;;0.70;;
20725;SDS011;10524;48.132;8.518;2022-09-09T13:22:16;3.47;;;0.80;;
20725;SDS011;10524;48.132;8.518;2022-09-09T13:24:46;3.70;;;0.60;;
20725;SDS011;10524;48.132;8.518;2022-09-09T13:30:32;3.92;;;0.82;;
20725;SDS011;10524;48.132;8.518;2022-09-09T13:38:38;2.60;;;0.67;;
20725;SDS011;10524;48.132;8.518;2022-09-09T13:44:06;2.03;;;0.60;;
20725;SDS011;10524;48.132;8.518;2022-09-09T13:51:37;2.17;;;0.60;;
20725;SDS011;10524;48.132;8.518;2022-09-09T13:54:18;3.22;;;0.70;;
20725;SDS011;10524;48.132;8.518;2022-09-09T13:57:00;4.20;;;0.80;;
20725;SDS011;10524;48.132;8.518;2022-09-09T13:59:35;2.97;;;0.70;;
20725;SDS011;10524;48.132;8.518;2022-09-09T14:02:01;2.00;;;0.70;;
20725;SDS011;10524;48.132;8.518;2022-09-09T14:04:27;3.58;;;1.00;;
20725;SDS011;10524;48.132;8.518;2022-09-09T14:07:14;1.25;;;0.60;;
20725;SDS011;10524;48.132;8.518;2022-09-09T14:13:19;3.92;;;0.75;;
20725;SDS011;10524;48.132;8.518;2022-09-09T14:15:46;2.10;;;0.65;;
20725;SDS011;10524;48.132;8.518;2022-09-09T14:18:13;4.03;;;0.80;;
20725;SDS011;10524;48.132;8.518;2022-09-09T14:20:38;1.48;;;0.55;;
20725;SDS011;10524;48.132;8.518;2022-09-09T14:23:04;1.42;;;0.40;;
20725;SDS011;10524;48.132;8.518;2022-09-09T14:25:30;3.22;;;0.50;;
20725;SDS011;10524;48.132;8.518;2022-09-09T14:27:56;2.58;;;0.60;;
20725;SDS011;10524;48.132;8.518;2022-09-09T14:30:22;2.30;;;0.60;;
20725;SDS011;10524;48.132;8.518;2022-09-09T14:32:48;6.32;;;0.70;;
20725;SDS011;10524;48.132;8.518;2022-09-09T14:35:13;2.55;;;0.80;;
20725;SDS011;10524;48.132;8.518;2022-09-09T14:37:39;1.85;;;0.50;;
20725;SDS011;10524;48.132;8.518;2022-09-09T14:40:05;1.95;;;0.65;;
20725;SDS011;10524;48.132;8.518;2022-09-09T14:42:32;1.48;;;0.43;;
20725;SDS011;10524;48.132;8.518;2022-09-09T14:44:58;0.90;;;0.38;;
20725;SDS011;10524;48.132;8.518;2022-09-09T14:47:24;2.45;;;0.50;;
20725;SDS011;10524;48.132;8.518;2022-09-09T14:49:51;1.55;;;0.40;;
20725;SDS011;10524;48.132;8.518;2022-09-09T14:52:16;2.05;;;0.52;;
20725;SDS011;10524;48.132;8.518;2022-09-09T14:54:42;1.27;;;0.40;;
20725;SDS011;10524;48.132;8.518;2022-09-09T14:57:08;0.73;;;0.40;;
20725;SDS011;10524;48.132;8.518;2022-09-09T14:59:33;1.40;;;0.30;;
20725;SDS011;10524;48.132;8.518;2022-09-09T15:01:59;1.23;;;0.40;;
20725;SDS011;10524;48.132;8.518;2022-09-09T15:04:29;3.22;;;0.50;;
20725;SDS011;10524;48.132;8.518;2022-09-09T15:06:54;1.35;;;0.50;;
20725;SDS011;10524;48.132;8.518;2022-09-09T15:09:20;1.85;;;0.40;;
20725;SDS011;10524;48.132;8.518;2022-09-09T15:11:45;2.22;;;0.60;;
20725;SDS011;10524;48.132;8.518;2022-09-09T15:14:11;2.25;;;0.40;;
20725;SDS011;10524;48.132;8.518;2022-09-09T15:16:37;2.25;;;0.50;;
20725;SDS011;10524;48.132;8.518;2022-09-09T15:19:04;1.48;;;0.43;;
20725;SDS011;10524;48.132;8.518;2022-09-09T15:21:30;1.52;;;0.55;;
20725;SDS011;10524;48.132;8.518;2022-09-09T15:23:58;2.15;;;0.45;;
20725;SDS011;10524;48.132;8.518;2022-09-09T15:26:24;2.15;;;0.60;;
20725;SDS011;10524;48.132;8.518;2022-09-09T15:28:51;1.00;;;0.40;;
20725;SDS011;10524;48.132;8.518;2022-09-09T15:31:17;3.42;;;0.60;;
20725;SDS011;10524;48.132;8.518;2022-09-09T15:33:48;2.20;;;0.60;;
20725;SDS011;10524;48.132;8.518;2022-09-09T15:36:25;1.63;;;0.60;;
20725;SDS011;10524;48.132;8.518;2022-09-09T15:38:52;1.63;;;0.50;;
20725;SDS011;10524;48.132;8.518;2022-09-09T15:41:18;2.25;;;0.55;;
20725;SDS011;10524;48.132;8.518;2022-09-09T15:43:46;2.28;;;0.70;;
20725;SDS011;10524;48.132;8.518;2022-09-09T15:48:54;1.42;;;0.57;;
20725;SDS011;10524;48.132;8.518;2022-09-09T15:51:22;2.60;;;0.60;;
20725;SDS011;10524;48.132;8.518;2022-09-09T15:53:48;3.78;;;0.60;;
20725;SDS011;10524;48.132;8.518;2022-09-09T15:56:18;2.47;;;0.55;;
20725;SDS011;10524;48.132;8.518;2022-09-09T15:58:43;1.23;;;0.60;;
20725;SDS011;10524;48.132;8.518;2022-09-09T16:01:09;2.53;;;0.70;;
20725;SDS011;10524;48.132;8.518;2022-09-09T16:03:38;3.58;;;1.00;;
20725;SDS011;10524;48.132;8.518;2022-09-09T16:06:08;3.28;;;0.80;;
20725;SDS011;10524;48.132;8.518;2022-09-09T16:08:37;2.33;;;0.70;;
20725;SDS011;10524;48.132;8.518;2022-09-09T16:11:06;2.08;;;0.60;;
20725;SDS011;10524;48.132;8.518;2022-09-09T16:13:35;2.25;;;0.52;;
20725;SDS011;10524;48.132;8.518;2022-09-09T16:16:02;2.95;;;0.70;;
20725;SDS011;10524;48.132;8.518;2022-09-09T16:18:39;3.15;;;0.93;;
20725;SDS011;10524;48.132;8.518;2022-09-09T16:21:07;3.53;;;2.80;;
20725;SDS011;10524;48.132;8.518;2022-09-09T16:23:35;2.72;;;0.75;;
20725;SDS011;10524;48.132;8.518;2022-09-09T16:26:01;2.70;;;0.70;;
20725;SDS011;10524;48.132;8.518;2022-09-09T16:28:27;2.30;;;1.02;;
20725;SDS011;10524;48.132;8.518;2022-09-09T16:30:54;2.17;;;0.70;;
20725;SDS011;10524;48.132;8.518;2022-09-09T16:33:20;3.70;;;0.75;;
20725;SDS011;10524;48.132;8.518;2022-09-09T16:35:46;1.83;;;0.70;;
20725;SDS011;10524;48.132;8.518;2022-09-09T16:38:11;2.20;;;0.73;;
20725;SDS011;10524;48.132;8.518;2022-09-09T16:40:37;3.25;;;0.75;;
20725;SDS011;10524;48.132;8.518;2022-09-09T16:43:03;2.85;;;0.77;;
20725;SDS011;10524;48.132;8.518;2022-09-09T16:45:30;2.10;;;0.70;;
20725;SDS011;10524;48.132;8.518;2022-09-09T16:47:57;0.85;;;0.55;;
20725;SDS011;10524;48.132;8.518;2022-09-09T16:50:23;1.40;;;0.50;;
20725;SDS011;10524;48.132;8.518;2022-09-09T16:52:49;2.00;;;0.60;;
20725;SDS011;10524;48.132;8.518;2022-09-09T16:55:16;3.25;;;0.80;;
20725;SDS011;10524;48.132;8.518;2022-09-09T16:57:42;2.00;;;0.73;;
20725;SDS011;10524;48.132;8.518;2022-09-09T17:00:07;3.63;;;1.55;;
20725;SDS011;10524;48.132;8.518;2022-09-09T17:02:33;3.42;;;2.20;;
20725;SDS011;10524;48.132;8.518;2022-09-09T17:04:59;2.25;;;0.98;;
20725;SDS011;10524;48.132;8.518;2022-09-09T17:07:25;1.52;;;0.70;;
20725;SDS011;10524;48.132;8.518;2022-09-09T17:09:50;2.05;;;0.70;;
20725;SDS011;10524;48.132;8.518;2022-09-09T17:12:19;4.20;;;0.80;;
20725;SDS011;10524;48.132;8.518;2022-09-09T17:14:46;2.13;;;0.95;;
20725;SDS011;10524;48.132;8.518;2022-09-09T17:17:12;1.52;;;0.80;;
20725;SDS011;10524;48.132;8.518;2022-09-09T17:19:37;2.80;;;1.00;;
20725;SDS011;10524;48.132;8.518;2022-09-09T17:22:03;2.45;;;0.88;;
20725;SDS011;10524;48.132;8.518;2022-09-09T17:24:28;5.20;;;1.25;;
20725;SDS011;10524;48.132;8.518;2022-09-09T17:26:54;2.70;;;1.13;;
20725;SDS011;10524;48.132;8.518;2022-09-09T17:29:20;4.15;;;1.10;;
20725;SDS011;10524;48.132;8.518;2022-09-09T17:31:46;4.68;;;1.08;;
20725;SDS011;10524;48.132;8.518;2022-09-09T17:34:12;4.20;;;1.10;;
20725;SDS011;10524;48.132;8.518;2022-09-09T17:36:38;3.88;;;1.20;;
20725;SDS011;10524;48.132;8.518;2022-09-09T17:39:04;3.13;;;1.35;;
20725;SDS011;10524;48.132;8.518;2022-09-09T17:41:34;2.20;;;1.10;;
20725;SDS011;10524;48.132;8.518;2022-09-09T17:44:03;3.75;;;1.27;;
20725;SDS011;10524;48.132;8.518;2022-09-09T17:46:31;2.75;;;1.10;;
20725;SDS011;10524;48.132;8.518;2022-09-09T17:49:06;3.03;;;1.10;;